createdAt,value
2016-07-04T00:00:00.490Z,709
2016-07-04T00:00:31.122Z,722
2016-07-04T00:01:01.135Z,722
2016-07-04T00:01:31.147Z,722
2016-07-04T00:02:00.544Z,722
2016-07-04T00:02:31.173Z,722
2016-07-04T00:03:01.191Z,722
2016-07-04T00:03:31.208Z,722
2016-07-04T00:04:01.222Z,722
2016-07-04T00:04:31.238Z,722
2016-07-04T00:05:01.248Z,722
2016-07-04T00:05:31.259Z,726
2016-07-04T00:06:01.276Z,726
2016-07-04T00:06:31.299Z,726
2016-07-04T00:07:01.305Z,726
2016-07-04T00:07:31.318Z,752
2016-07-04T00:08:01.333Z,735
2016-07-04T00:08:31.358Z,739
2016-07-04T00:09:01.361Z,735
2016-07-04T00:09:31.378Z,735
2016-07-04T00:10:01.393Z,735
2016-07-04T00:10:31.405Z,739
2016-07-04T00:11:01.414Z,739
2016-07-04T00:11:31.427Z,739
2016-07-04T00:12:01.450Z,744
2016-07-04T00:12:31.461Z,744
2016-07-04T00:13:01.479Z,744
2016-07-04T00:13:31.491Z,744
2016-07-04T00:14:01.508Z,744
2016-07-04T00:14:31.520Z,744
2016-07-04T00:15:01.532Z,744
2016-07-04T00:15:31.544Z,744
2016-07-04T00:16:01.571Z,740
2016-07-04T00:16:31.580Z,731
2016-07-04T00:17:01.588Z,740
2016-07-04T00:17:31.604Z,727
2016-07-04T00:18:01.003Z,731
2016-07-04T00:18:31.629Z,731
2016-07-04T00:19:01.650Z,731
2016-07-04T00:19:31.670Z,731
2016-07-04T00:20:01.060Z,731
2016-07-04T00:20:31.072Z,737
2016-07-04T00:21:01.703Z,737
2016-07-04T00:21:31.732Z,737
2016-07-04T00:22:01.730Z,737
2016-07-04T00:22:31.742Z,737
2016-07-04T00:23:01.756Z,751
2016-07-04T00:23:31.785Z,738
2016-07-04T00:24:01.788Z,738
2016-07-04T00:24:31.797Z,738
2016-07-04T00:25:01.814Z,738
2016-07-04T00:25:31.834Z,738
2016-07-04T00:26:01.841Z,738
2016-07-04T00:26:31.857Z,738
2016-07-04T00:27:01.880Z,738
2016-07-04T00:27:31.886Z,738
2016-07-04T00:28:01.285Z,734
2016-07-04T00:28:31.914Z,730
2016-07-04T00:29:01.926Z,726
2016-07-04T00:29:31.939Z,726
2016-07-04T00:30:01.342Z,717
2016-07-04T00:30:31.965Z,717
2016-07-04T00:31:01.987Z,717
2016-07-04T00:31:31.999Z,721
2016-07-04T00:32:02.016Z,721
2016-07-04T00:32:32.035Z,721
2016-07-04T00:33:02.044Z,721
2016-07-04T00:33:32.063Z,721
2016-07-04T00:34:02.067Z,721
2016-07-04T00:34:32.085Z,712
2016-07-04T00:35:02.100Z,712
2016-07-04T00:35:32.114Z,716
2016-07-04T00:36:02.129Z,716
2016-07-04T00:36:32.137Z,716
2016-07-04T00:37:02.158Z,724
2016-07-04T00:37:32.174Z,720
2016-07-04T00:38:02.184Z,720
2016-07-04T00:38:32.198Z,720
2016-07-04T00:39:02.230Z,720
2016-07-04T00:39:32.230Z,720
2016-07-04T00:40:02.243Z,720
2016-07-04T00:40:32.257Z,716
2016-07-04T00:41:02.271Z,716
2016-07-04T00:41:32.289Z,716
2016-07-04T00:42:02.304Z,716
2016-07-04T00:42:32.305Z,716
2016-07-04T00:43:02.332Z,716
2016-07-04T00:43:32.351Z,707
2016-07-04T00:44:02.359Z,707
2016-07-04T00:44:32.369Z,703
2016-07-04T00:45:02.380Z,703
2016-07-04T00:45:32.403Z,703
2016-07-04T00:46:02.411Z,703
2016-07-04T00:46:32.432Z,703
2016-07-04T00:47:02.442Z,703
2016-07-04T00:47:32.460Z,703
2016-07-04T00:48:02.471Z,699
2016-07-04T00:48:32.486Z,699
2016-07-04T00:49:02.509Z,699
2016-07-04T00:49:31.903Z,699
2016-07-04T00:50:02.525Z,699
2016-07-04T00:50:32.540Z,691
2016-07-04T00:51:02.555Z,695
2016-07-04T00:51:32.574Z,695
2016-07-04T00:52:02.584Z,690
2016-07-04T00:52:32.600Z,703
2016-07-04T00:53:02.611Z,703
2016-07-04T00:53:32.626Z,703
2016-07-04T00:54:02.636Z,703
2016-07-04T00:54:32.653Z,703
2016-07-04T00:55:02.671Z,707
2016-07-04T00:55:32.074Z,716
2016-07-04T00:56:02.700Z,716
2016-07-04T00:56:32.713Z,716
2016-07-04T00:57:02.731Z,707
2016-07-04T00:57:32.747Z,707
2016-07-04T00:58:02.758Z,711
2016-07-04T00:58:32.768Z,711
2016-07-04T00:59:02.785Z,711
2016-07-04T00:59:32.804Z,715
2016-07-04T01:00:02.914Z,715
2016-07-04T01:00:32.214Z,715
2016-07-04T01:01:02.840Z,715
2016-07-04T01:01:32.859Z,715
2016-07-04T01:02:02.874Z,715
2016-07-04T01:02:32.885Z,715
2016-07-04T01:03:02.904Z,715
2016-07-04T01:03:32.292Z,715
2016-07-04T01:04:02.937Z,715
2016-07-04T01:04:32.943Z,715
2016-07-04T01:05:02.954Z,715
2016-07-04T01:05:32.972Z,715
2016-07-04T01:06:03.128Z,715
2016-07-04T01:06:32.996Z,715
2016-07-04T01:07:03.182Z,706
2016-07-04T01:07:33.148Z,710
2016-07-04T01:08:02.587Z,710
2016-07-04T01:08:33.056Z,710
2016-07-04T01:09:03.129Z,710
2016-07-04T01:09:33.094Z,714
2016-07-04T01:10:03.172Z,710
2016-07-04T01:10:33.112Z,706
2016-07-04T01:11:03.247Z,713
2016-07-04T01:11:33.144Z,713
2016-07-04T01:12:03.202Z,713
2016-07-04T01:12:33.170Z,713
2016-07-04T01:13:02.567Z,713
2016-07-04T01:13:33.213Z,713
2016-07-04T01:14:03.220Z,713
2016-07-04T01:14:33.227Z,713
2016-07-04T01:15:02.622Z,710
2016-07-04T01:15:33.259Z,705
2016-07-04T01:16:03.271Z,710
2016-07-04T01:16:33.283Z,710
2016-07-04T01:17:03.295Z,705
2016-07-04T01:17:33.312Z,705
2016-07-04T01:18:03.325Z,705
2016-07-04T01:18:33.341Z,705
2016-07-04T01:19:03.349Z,705
2016-07-04T01:19:33.376Z,705
2016-07-04T01:20:03.386Z,705
2016-07-04T01:20:33.398Z,701
2016-07-04T01:21:02.794Z,701
2016-07-04T01:21:33.438Z,701
2016-07-04T01:22:03.448Z,693
2016-07-04T01:22:33.452Z,693
2016-07-04T01:23:03.471Z,693
2016-07-04T01:23:33.486Z,693
2016-07-04T01:24:02.881Z,702
2016-07-04T01:24:33.509Z,702
2016-07-04T01:25:03.532Z,702
2016-07-04T01:25:33.548Z,702
2016-07-04T01:26:03.562Z,698
2016-07-04T01:26:33.573Z,702
2016-07-04T01:27:03.586Z,702
2016-07-04T01:27:33.600Z,702
2016-07-04T01:28:03.616Z,702
2016-07-04T01:28:33.628Z,702
2016-07-04T01:29:03.649Z,702
2016-07-04T01:29:33.661Z,693
2016-07-04T01:30:03.675Z,697
2016-07-04T01:30:33.686Z,697
2016-07-04T01:31:03.701Z,697
2016-07-04T01:31:33.713Z,705
2016-07-04T01:32:03.729Z,705
2016-07-04T01:32:33.743Z,705
2016-07-04T01:33:03.754Z,705
2016-07-04T01:33:33.773Z,705
2016-07-04T01:34:03.788Z,706
2016-07-04T01:34:33.799Z,706
2016-07-04T01:35:03.818Z,706
2016-07-04T01:35:33.828Z,706
2016-07-04T01:36:03.841Z,706
2016-07-04T01:36:33.856Z,706
2016-07-04T01:37:03.876Z,710
2016-07-04T01:37:33.886Z,710
2016-07-04T01:38:03.903Z,710
2016-07-04T01:38:33.914Z,710
2016-07-04T01:39:03.927Z,710
2016-07-04T01:39:33.950Z,706
2016-07-04T01:40:03.962Z,706
2016-07-04T01:40:33.967Z,710
2016-07-04T01:41:03.982Z,710
2016-07-04T01:41:33.999Z,710
2016-07-04T01:42:04.018Z,710
2016-07-04T01:42:34.025Z,706
2016-07-04T01:43:03.430Z,706
2016-07-04T01:43:34.054Z,706
2016-07-04T01:44:04.065Z,701
2016-07-04T01:44:33.467Z,701
2016-07-04T01:45:04.098Z,701
2016-07-04T01:45:34.112Z,701
2016-07-04T01:46:04.135Z,701
2016-07-04T01:46:34.145Z,705
2016-07-04T01:47:03.537Z,705
2016-07-04T01:47:34.167Z,705
2016-07-04T01:48:04.187Z,713
2016-07-04T01:48:34.196Z,713
2016-07-04T01:49:04.212Z,704
2016-07-04T01:49:34.225Z,704
2016-07-04T01:50:04.241Z,712
2016-07-04T01:50:34.258Z,708
2016-07-04T01:51:04.271Z,708
2016-07-04T01:51:34.285Z,708
2016-07-04T01:52:04.302Z,708
2016-07-04T01:52:34.313Z,708
2016-07-04T01:53:04.324Z,708
2016-07-04T01:53:33.719Z,708
2016-07-04T01:54:04.355Z,708
2016-07-04T01:54:34.366Z,708
2016-07-04T01:55:04.381Z,708
2016-07-04T01:55:34.397Z,716
2016-07-04T01:56:04.413Z,716
2016-07-04T01:56:34.421Z,712
2016-07-04T01:57:04.435Z,712
2016-07-04T01:57:34.455Z,712
2016-07-04T01:58:04.466Z,712
2016-07-04T01:58:34.483Z,712
2016-07-04T01:59:04.494Z,712
2016-07-04T01:59:34.519Z,712
2016-07-04T02:00:04.530Z,712
2016-07-04T02:00:34.548Z,712
2016-07-04T02:01:04.552Z,712
2016-07-04T02:01:34.566Z,712
2016-07-04T02:02:04.583Z,712
2016-07-04T02:02:34.594Z,712
2016-07-04T02:03:04.612Z,712
2016-07-04T02:03:34.623Z,712
2016-07-04T02:04:04.639Z,707
2016-07-04T02:04:34.651Z,707
2016-07-04T02:05:04.667Z,707
2016-07-04T02:05:34.679Z,712
2016-07-04T02:06:04.695Z,712
2016-07-04T02:06:34.715Z,712
2016-07-04T02:07:04.723Z,712
2016-07-04T02:07:34.733Z,712
2016-07-04T02:08:04.756Z,712
2016-07-04T02:08:34.816Z,716
2016-07-04T02:09:04.274Z,716
2016-07-04T02:09:34.962Z,716
2016-07-04T02:10:04.812Z,716
2016-07-04T02:10:34.890Z,716
2016-07-04T02:11:04.898Z,716
2016-07-04T02:11:35.022Z,716
2016-07-04T02:12:04.872Z,716
2016-07-04T02:12:35.025Z,716
2016-07-04T02:13:04.945Z,716
2016-07-04T02:13:34.960Z,716
2016-07-04T02:14:04.977Z,716
2016-07-04T02:14:35.001Z,716
2016-07-04T02:15:05.069Z,716
2016-07-04T02:15:34.967Z,716
2016-07-04T02:16:04.986Z,716
2016-07-04T02:16:35.007Z,716
2016-07-04T02:17:05.064Z,716
2016-07-04T02:17:35.030Z,716
2016-07-04T02:18:04.428Z,716
2016-07-04T02:18:35.054Z,716
2016-07-04T02:19:05.068Z,716
2016-07-04T02:19:35.081Z,716
2016-07-04T02:20:05.105Z,716
2016-07-04T02:20:35.116Z,712
2016-07-04T02:21:05.125Z,712
2016-07-04T02:21:35.138Z,712
2016-07-04T02:22:05.160Z,712
2016-07-04T02:22:35.168Z,712
2016-07-04T02:23:04.567Z,720
2016-07-04T02:23:35.192Z,725
2016-07-04T02:24:05.208Z,725
2016-07-04T02:24:35.223Z,725
2016-07-04T02:25:05.242Z,716
2016-07-04T02:25:35.249Z,720
2016-07-04T02:26:05.266Z,720
2016-07-04T02:26:35.280Z,720
2016-07-04T02:27:05.298Z,720
2016-07-04T02:27:35.307Z,724
2016-07-04T02:28:05.326Z,729
2016-07-04T02:28:35.338Z,729
2016-07-04T02:29:05.358Z,729
2016-07-04T02:29:35.370Z,729
2016-07-04T02:30:05.384Z,729
2016-07-04T02:30:34.789Z,729
2016-07-04T02:31:05.418Z,729
2016-07-04T02:31:35.422Z,724
2016-07-04T02:32:05.440Z,724
2016-07-04T02:32:35.459Z,724
2016-07-04T02:33:05.465Z,724
2016-07-04T02:33:35.486Z,724
2016-07-04T02:34:05.498Z,724
2016-07-04T02:34:35.509Z,724
2016-07-04T02:35:05.524Z,728
2016-07-04T02:35:35.539Z,728
2016-07-04T02:36:05.550Z,728
2016-07-04T02:36:34.949Z,728
2016-07-04T02:37:05.582Z,724
2016-07-04T02:37:35.594Z,724
2016-07-04T02:38:05.610Z,724
2016-07-04T02:38:35.624Z,724
2016-07-04T02:39:05.642Z,728
2016-07-04T02:39:35.650Z,720
2016-07-04T02:40:05.667Z,720
2016-07-04T02:40:35.056Z,720
2016-07-04T02:41:05.695Z,724
2016-07-04T02:41:35.706Z,724
2016-07-04T02:42:05.718Z,724
2016-07-04T02:42:35.734Z,728
2016-07-04T02:43:05.746Z,728
2016-07-04T02:43:35.768Z,728
2016-07-04T02:44:05.774Z,728
2016-07-04T02:44:35.792Z,728
2016-07-04T02:45:05.812Z,728
2016-07-04T02:45:35.819Z,728
2016-07-04T02:46:05.219Z,728
2016-07-04T02:46:35.843Z,737
2016-07-04T02:47:05.870Z,737
2016-07-04T02:47:35.879Z,737
2016-07-04T02:48:05.888Z,737
2016-07-04T02:48:35.908Z,737
2016-07-04T02:49:05.919Z,741
2016-07-04T02:49:35.940Z,741
2016-07-04T02:50:05.945Z,741
2016-07-04T02:50:35.962Z,737
2016-07-04T02:51:05.357Z,741
2016-07-04T02:51:35.990Z,741
2016-07-04T02:52:06.008Z,741
2016-07-04T02:52:36.020Z,750
2016-07-04T02:53:06.036Z,741
2016-07-04T02:53:36.049Z,741
2016-07-04T02:54:06.060Z,741
2016-07-04T02:54:36.067Z,741
2016-07-04T02:55:06.091Z,741
2016-07-04T02:55:36.109Z,741
2016-07-04T02:56:06.120Z,745
2016-07-04T02:56:36.134Z,745
2016-07-04T02:57:06.155Z,745
2016-07-04T02:57:36.169Z,745
2016-07-04T02:58:06.177Z,741
2016-07-04T02:58:35.572Z,750
2016-07-04T02:59:06.207Z,750
2016-07-04T02:59:35.602Z,746
2016-07-04T03:00:06.227Z,751
2016-07-04T03:00:36.242Z,746
2016-07-04T03:01:06.260Z,746
2016-07-04T03:01:36.269Z,746
2016-07-04T03:02:06.290Z,746
2016-07-04T03:02:36.301Z,746
2016-07-04T03:03:06.307Z,746
2016-07-04T03:03:36.321Z,755
2016-07-04T03:04:06.343Z,751
2016-07-04T03:04:36.355Z,751
2016-07-04T03:05:06.378Z,751
2016-07-04T03:05:36.388Z,747
2016-07-04T03:06:06.405Z,747
2016-07-04T03:06:36.416Z,747
2016-07-04T03:07:06.428Z,755
2016-07-04T03:07:36.442Z,751
2016-07-04T03:08:06.457Z,751
2016-07-04T03:08:36.475Z,751
2016-07-04T03:09:06.483Z,751
2016-07-04T03:09:36.504Z,751
2016-07-04T03:10:06.516Z,751
2016-07-04T03:10:36.528Z,751
2016-07-04T03:11:06.546Z,751
2016-07-04T03:11:36.557Z,751
2016-07-04T03:12:06.567Z,751
2016-07-04T03:12:36.582Z,751
2016-07-04T03:13:05.989Z,751
2016-07-04T03:13:36.614Z,755
2016-07-04T03:14:06.628Z,751
2016-07-04T03:14:36.640Z,751
2016-07-04T03:15:06.655Z,751
2016-07-04T03:15:36.663Z,755
2016-07-04T03:16:06.679Z,755
2016-07-04T03:16:36.697Z,747
2016-07-04T03:17:06.705Z,760
2016-07-04T03:17:36.715Z,752
2016-07-04T03:18:06.734Z,752
2016-07-04T03:18:36.748Z,752
2016-07-04T03:19:06.765Z,747
2016-07-04T03:19:36.773Z,747
2016-07-04T03:20:06.787Z,747
2016-07-04T03:20:36.803Z,747
2016-07-04T03:21:06.816Z,747
2016-07-04T03:21:36.834Z,747
2016-07-04T03:22:06.857Z,747
2016-07-04T03:22:36.861Z,743
2016-07-04T03:23:06.881Z,743
2016-07-04T03:23:36.888Z,748
2016-07-04T03:24:06.904Z,748
2016-07-04T03:24:36.918Z,748
2016-07-04T03:25:06.931Z,743
2016-07-04T03:25:36.947Z,747
2016-07-04T03:26:06.347Z,747
2016-07-04T03:26:36.976Z,747
2016-07-04T03:27:06.994Z,747
2016-07-04T03:27:37.007Z,747
2016-07-04T03:28:07.021Z,747
2016-07-04T03:28:37.035Z,747
2016-07-04T03:29:07.050Z,743
2016-07-04T03:29:37.066Z,743
2016-07-04T03:30:07.078Z,743
2016-07-04T03:30:37.094Z,743
2016-07-04T03:31:07.107Z,747
2016-07-04T03:31:37.117Z,747
2016-07-04T03:32:07.136Z,743
2016-07-04T03:32:37.150Z,743
2016-07-04T03:33:07.167Z,743
2016-07-04T03:33:37.179Z,743
2016-07-04T03:34:07.193Z,748
2016-07-04T03:34:37.203Z,748
2016-07-04T03:35:07.220Z,748
2016-07-04T03:35:37.230Z,748
2016-07-04T03:36:07.253Z,748
2016-07-04T03:36:37.262Z,752
2016-07-04T03:37:07.280Z,752
2016-07-04T03:37:37.288Z,752
2016-07-04T03:38:07.306Z,752
2016-07-04T03:38:36.703Z,756
2016-07-04T03:39:07.335Z,760
2016-07-04T03:39:37.345Z,751
2016-07-04T03:40:07.365Z,751
2016-07-04T03:40:37.375Z,751
2016-07-04T03:41:07.391Z,751
2016-07-04T03:41:37.396Z,751
2016-07-04T03:42:06.796Z,751
2016-07-04T03:42:37.432Z,755
2016-07-04T03:43:07.445Z,755
2016-07-04T03:43:37.466Z,751
2016-07-04T03:44:06.858Z,751
2016-07-04T03:44:37.479Z,756
2016-07-04T03:45:07.503Z,755
2016-07-04T03:45:36.899Z,760
2016-07-04T03:46:07.525Z,760
2016-07-04T03:46:37.544Z,760
2016-07-04T03:47:07.558Z,747
2016-07-04T03:47:37.575Z,747
2016-07-04T03:48:07.587Z,751
2016-07-04T03:48:37.605Z,747
2016-07-04T03:49:07.616Z,747
2016-07-04T03:49:37.634Z,747
2016-07-04T03:50:07.644Z,747
2016-07-04T03:50:37.660Z,747
2016-07-04T03:51:07.675Z,747
2016-07-04T03:51:37.687Z,747
2016-07-04T03:52:07.706Z,747
2016-07-04T03:52:37.720Z,747
2016-07-04T03:53:07.732Z,747
2016-07-04T03:53:37.747Z,747
2016-07-04T03:54:07.759Z,747
2016-07-04T03:54:37.771Z,747
2016-07-04T03:55:07.786Z,747
2016-07-04T03:55:37.800Z,751
2016-07-04T03:56:07.815Z,747
2016-07-04T03:56:37.826Z,747
2016-07-04T03:57:07.846Z,743
2016-07-04T03:57:37.860Z,747
2016-07-04T03:58:07.875Z,738
2016-07-04T03:58:37.892Z,738
2016-07-04T03:59:07.905Z,738
2016-07-04T03:59:37.919Z,738
2016-07-04T04:00:07.930Z,734
2016-07-04T04:00:37.945Z,734
2016-07-04T04:01:07.964Z,720
2016-07-04T04:01:37.976Z,720
2016-07-04T04:02:07.989Z,724
2016-07-04T04:02:38.001Z,724
2016-07-04T04:03:08.020Z,724
2016-07-04T04:03:38.032Z,720
2016-07-04T04:04:08.044Z,712
2016-07-04T04:04:38.058Z,712
2016-07-04T04:05:08.080Z,712
2016-07-04T04:05:38.097Z,712
2016-07-04T04:06:08.106Z,712
2016-07-04T04:06:38.117Z,712
2016-07-04T04:07:08.134Z,712
2016-07-04T04:07:37.530Z,712
2016-07-04T04:08:08.163Z,712
2016-07-04T04:08:38.173Z,712
2016-07-04T04:09:08.194Z,712
2016-07-04T04:09:38.204Z,712
2016-07-04T04:10:08.213Z,712
2016-07-04T04:10:38.230Z,712
2016-07-04T04:11:08.246Z,712
2016-07-04T04:11:38.257Z,712
2016-07-04T04:12:08.277Z,712
2016-07-04T04:12:38.289Z,712
2016-07-04T04:13:08.301Z,704
2016-07-04T04:13:38.316Z,704
2016-07-04T04:14:08.335Z,708
2016-07-04T04:14:38.342Z,699
2016-07-04T04:15:08.364Z,699
2016-07-04T04:15:38.387Z,699
2016-07-04T04:16:08.394Z,699
2016-07-04T04:16:38.402Z,704
2016-07-04T04:17:07.804Z,704
2016-07-04T04:17:38.433Z,700
2016-07-04T04:18:08.450Z,692
2016-07-04T04:18:38.466Z,699
2016-07-04T04:19:08.479Z,695
2016-07-04T04:19:38.493Z,695
2016-07-04T04:20:08.517Z,695
2016-07-04T04:20:38.522Z,695
2016-07-04T04:21:08.532Z,695
2016-07-04T04:21:38.552Z,686
2016-07-04T04:22:08.569Z,686
2016-07-04T04:22:38.577Z,686
2016-07-04T04:23:08.592Z,691
2016-07-04T04:23:37.996Z,691
2016-07-04T04:24:08.635Z,691
2016-07-04T04:24:38.643Z,691
2016-07-04T04:25:08.659Z,691
2016-07-04T04:25:38.675Z,691
2016-07-04T04:26:08.683Z,691
2016-07-04T04:26:38.693Z,691
2016-07-04T04:27:08.710Z,691
2016-07-04T04:27:38.729Z,691
2016-07-04T04:28:08.739Z,691
2016-07-04T04:28:38.139Z,691
2016-07-04T04:29:08.156Z,691
2016-07-04T04:29:38.783Z,691
2016-07-04T04:30:08.811Z,682
2016-07-04T04:30:38.809Z,682
2016-07-04T04:31:08.830Z,682
2016-07-04T04:31:38.842Z,682
2016-07-04T04:32:08.850Z,682
2016-07-04T04:32:38.871Z,682
2016-07-04T04:33:08.886Z,686
2016-07-04T04:33:38.907Z,686
2016-07-04T04:34:08.306Z,686
2016-07-04T04:34:38.932Z,686
2016-07-04T04:35:08.944Z,686
2016-07-04T04:35:38.958Z,686
2016-07-04T04:36:08.975Z,686
2016-07-04T04:36:38.994Z,686
2016-07-04T04:37:09.006Z,686
2016-07-04T04:37:39.010Z,682
2016-07-04T04:38:09.030Z,677
2016-07-04T04:38:39.048Z,677
2016-07-04T04:39:09.059Z,673
2016-07-04T04:39:39.074Z,672
2016-07-04T04:40:09.083Z,672
2016-07-04T04:40:39.104Z,672
2016-07-04T04:41:09.114Z,672
2016-07-04T04:41:38.515Z,672
2016-07-04T04:42:09.146Z,672
2016-07-04T04:42:39.162Z,672
2016-07-04T04:43:09.176Z,672
2016-07-04T04:43:39.191Z,672
2016-07-04T04:44:08.585Z,672
2016-07-04T04:44:39.217Z,672
2016-07-04T04:45:09.233Z,672
2016-07-04T04:45:39.245Z,672
2016-07-04T04:46:09.268Z,672
2016-07-04T04:46:39.273Z,672
2016-07-04T04:47:09.295Z,668
2016-07-04T04:47:39.317Z,668
2016-07-04T04:48:09.319Z,668
2016-07-04T04:48:39.333Z,668
2016-07-04T04:49:09.354Z,668
2016-07-04T04:49:39.366Z,668
2016-07-04T04:50:09.385Z,668
2016-07-04T04:50:39.393Z,668
2016-07-04T04:51:09.405Z,668
2016-07-04T04:51:39.441Z,668
2016-07-04T04:52:09.439Z,668
2016-07-04T04:52:39.458Z,668
2016-07-04T04:53:09.467Z,668
2016-07-04T04:53:39.482Z,673
2016-07-04T04:54:08.884Z,673
2016-07-04T04:54:39.514Z,673
2016-07-04T04:55:09.527Z,659
2016-07-04T04:55:39.544Z,663
2016-07-04T04:56:09.556Z,663
2016-07-04T04:56:39.570Z,663
2016-07-04T04:57:08.968Z,667
2016-07-04T04:57:39.604Z,667
2016-07-04T04:58:09.001Z,667
2016-07-04T04:58:39.626Z,667
2016-07-04T04:59:09.643Z,667
2016-07-04T04:59:39.656Z,667
2016-07-04T05:00:09.677Z,667
2016-07-04T05:00:39.715Z,667
2016-07-04T05:01:09.736Z,667
2016-07-04T05:01:39.138Z,667
2016-07-04T05:02:09.785Z,667
2016-07-04T05:02:39.758Z,664
2016-07-04T05:03:09.838Z,664
2016-07-04T05:03:39.780Z,659
2016-07-04T05:04:09.178Z,659
2016-07-04T05:04:39.186Z,659
2016-07-04T05:05:09.814Z,659
2016-07-04T05:05:39.839Z,659
2016-07-04T05:06:09.850Z,659
2016-07-04T05:06:39.866Z,656
2016-07-04T05:07:09.879Z,652
2016-07-04T05:07:39.893Z,656
2016-07-04T05:08:09.910Z,656
2016-07-04T05:08:39.916Z,656
2016-07-04T05:09:09.935Z,648
2016-07-04T05:09:39.945Z,648
2016-07-04T05:10:09.976Z,648
2016-07-04T05:10:39.982Z,644
2016-07-04T05:11:09.994Z,644
2016-07-04T05:11:40.014Z,651
2016-07-04T05:12:09.414Z,651
2016-07-04T05:12:40.044Z,651
2016-07-04T05:13:10.048Z,651
2016-07-04T05:13:40.074Z,663
2016-07-04T05:14:09.473Z,659
2016-07-04T05:14:40.093Z,652
2016-07-04T05:15:10.112Z,648
2016-07-04T05:15:40.122Z,648
2016-07-04T05:16:10.147Z,641
2016-07-04T05:16:40.168Z,641
2016-07-04T05:17:10.172Z,641
2016-07-04T05:17:40.186Z,892
2016-07-04T05:18:10.198Z,640
2016-07-04T05:18:40.210Z,644
2016-07-04T05:19:10.228Z,644
2016-07-04T05:19:40.246Z,644
2016-07-04T05:20:10.257Z,644
2016-07-04T05:20:40.274Z,644
2016-07-04T05:21:10.293Z,647
2016-07-04T05:21:40.299Z,647
2016-07-04T05:22:10.318Z,640
2016-07-04T05:22:40.326Z,640
2016-07-04T05:23:10.342Z,888
2016-07-04T05:23:40.359Z,888
2016-07-04T05:24:10.372Z,892
2016-07-04T05:24:40.391Z,888
2016-07-04T05:25:10.409Z,888
2016-07-04T05:25:40.420Z,892
2016-07-04T05:26:10.428Z,884
2016-07-04T05:26:40.446Z,888
2016-07-04T05:27:10.466Z,891
2016-07-04T05:27:40.479Z,895
2016-07-04T05:28:10.491Z,895
2016-07-04T05:28:40.507Z,895
2016-07-04T05:29:10.519Z,887
2016-07-04T05:29:40.538Z,887
2016-07-04T05:30:10.551Z,895
2016-07-04T05:30:40.567Z,891
2016-07-04T05:31:10.579Z,891
2016-07-04T05:31:40.596Z,891
2016-07-04T05:32:10.603Z,891
2016-07-04T05:32:40.619Z,887
2016-07-04T05:33:10.646Z,887
2016-07-04T05:33:40.653Z,887
2016-07-04T05:34:10.665Z,891
2016-07-04T05:34:40.676Z,891
2016-07-04T05:35:10.797Z,891
2016-07-04T05:35:40.091Z,891
2016-07-04T05:36:10.884Z,891
2016-07-04T05:36:40.781Z,891
2016-07-04T05:37:10.915Z,891
2016-07-04T05:37:40.774Z,891
2016-07-04T05:38:41.007Z,882
2016-07-04T05:38:46.671Z,890
2016-07-04T05:39:16.721Z,890
2016-07-04T05:39:46.075Z,882
2016-07-04T05:40:16.700Z,878
2016-07-04T05:40:46.719Z,874
2016-07-04T05:41:16.734Z,874
2016-07-04T05:41:46.745Z,874
2016-07-04T05:42:16.763Z,870
2016-07-04T05:42:46.157Z,866
2016-07-04T05:43:16.793Z,866
2016-07-04T05:43:46.805Z,866
2016-07-04T05:44:16.817Z,866
2016-07-04T05:44:46.852Z,859
2016-07-04T05:45:16.849Z,855
2016-07-04T05:45:46.865Z,859
2016-07-04T05:46:16.936Z,859
2016-07-04T05:46:46.905Z,847
2016-07-04T05:47:16.945Z,847
2016-07-04T05:47:46.300Z,847
2016-07-04T05:48:16.317Z,839
2016-07-04T05:48:46.949Z,839
2016-07-04T05:49:16.973Z,836
2016-07-04T05:49:46.981Z,836
2016-07-04T05:50:16.996Z,832
2016-07-04T05:50:47.010Z,832
2016-07-04T05:51:17.031Z,829
2016-07-04T05:51:47.045Z,829
2016-07-04T05:52:17.471Z,828
2016-07-04T05:52:46.462Z,828
2016-07-04T05:53:17.123Z,828
2016-07-04T05:53:47.100Z,821
2016-07-04T05:54:17.123Z,821
2016-07-04T05:54:47.129Z,821
2016-07-04T05:55:17.151Z,818
2016-07-04T05:55:47.168Z,818
2016-07-04T05:56:17.184Z,814
2016-07-04T05:56:47.194Z,808
2016-07-04T05:57:17.202Z,808
2016-07-04T05:57:47.223Z,808
2016-07-04T05:58:17.240Z,808
2016-07-04T05:58:46.646Z,811
2016-07-04T05:59:17.268Z,811
2016-07-04T05:59:46.671Z,808
2016-07-04T06:00:17.298Z,811
2016-07-04T06:00:48.442Z,800
2016-07-04T06:01:16.970Z,803
2016-07-04T06:01:47.346Z,797
2016-07-04T06:02:17.361Z,797
2016-07-04T06:02:47.385Z,797
2016-07-04T06:03:17.707Z,797
2016-07-04T06:03:46.788Z,797
2016-07-04T06:04:17.426Z,796
2016-07-04T06:04:47.445Z,796
2016-07-04T06:05:16.828Z,792
2016-07-04T06:05:47.476Z,808
2016-07-04T06:06:17.490Z,793
2016-07-04T06:06:46.887Z,793
2016-07-04T06:07:17.510Z,789
2016-07-04T06:07:47.529Z,785
2016-07-04T06:08:17.544Z,782
2016-07-04T06:08:47.583Z,782
2016-07-04T06:09:17.568Z,778
2016-07-04T06:09:47.601Z,775
2016-07-04T06:10:17.608Z,771
2016-07-04T06:10:47.623Z,771
2016-07-04T06:11:17.320Z,771
2016-07-04T06:11:47.650Z,771
2016-07-04T06:12:17.668Z,768
2016-07-04T06:12:47.683Z,509
2016-07-04T06:13:17.692Z,509
2016-07-04T06:13:47.707Z,768
2016-07-04T06:14:17.727Z,768
2016-07-04T06:14:47.737Z,772
2016-07-04T06:15:17.760Z,506
2016-07-04T06:15:47.774Z,506
2016-07-04T06:16:17.796Z,768
2016-07-04T06:16:47.201Z,768
2016-07-04T06:17:17.814Z,504
2016-07-04T06:17:47.232Z,501
2016-07-04T06:18:17.233Z,504
2016-07-04T06:18:47.867Z,504
2016-07-04T06:19:17.879Z,504
2016-07-04T06:19:47.900Z,504
2016-07-04T06:20:17.917Z,504
2016-07-04T06:20:47.929Z,508
2016-07-04T06:21:17.940Z,505
2016-07-04T06:21:47.965Z,505
2016-07-04T06:22:17.365Z,496
2016-07-04T06:22:47.996Z,496
2016-07-04T06:23:18.020Z,500
2016-07-04T06:23:47.408Z,492
2016-07-04T06:24:17.430Z,489
2016-07-04T06:24:48.060Z,478
2016-07-04T06:25:17.462Z,482
2016-07-04T06:25:48.090Z,482
2016-07-04T06:26:18.106Z,482
2016-07-04T06:26:47.502Z,476
2016-07-04T06:27:18.140Z,476
2016-07-04T06:27:48.148Z,479
2016-07-04T06:28:18.163Z,482
2016-07-04T06:28:47.565Z,482
2016-07-04T06:29:18.194Z,485
2016-07-04T06:29:48.211Z,485
2016-07-04T06:30:18.228Z,485
2016-07-04T06:30:47.628Z,482
2016-07-04T06:31:18.282Z,479
2016-07-04T06:31:47.655Z,449
2016-07-04T06:32:18.296Z,445
2016-07-04T06:32:48.296Z,423
2016-07-04T06:33:18.332Z,435
2016-07-04T06:33:47.729Z,408
2016-07-04T06:34:17.741Z,398
2016-07-04T06:34:48.367Z,626
2016-07-04T06:35:18.497Z,589
2016-07-04T06:35:48.397Z,571
2016-07-04T06:36:18.415Z,551
2016-07-04T06:36:48.449Z,543
2016-07-04T06:37:18.450Z,522
2016-07-04T06:37:47.850Z,514
2016-07-04T06:38:18.489Z,230
2016-07-04T06:38:47.884Z,221
2016-07-04T06:39:18.514Z,205
2016-07-04T06:39:47.915Z,188
2016-07-04T06:40:18.547Z,184
2016-07-04T06:40:48.569Z,172
2016-07-04T06:41:18.581Z,168
2016-07-04T06:41:48.596Z,154
2016-07-04T06:42:18.619Z,161
2016-07-04T06:42:48.658Z,158
2016-07-04T06:43:18.646Z,169
2016-07-04T06:43:48.663Z,155
2016-07-04T06:44:18.683Z,153
2016-07-04T06:44:48.697Z,168
2016-07-04T06:45:18.101Z,166
2016-07-04T06:45:48.727Z,172
2016-07-04T06:46:18.756Z,176
2016-07-04T06:46:48.766Z,177
2016-07-04T06:47:18.787Z,175
2016-07-04T06:47:48.807Z,180
2016-07-04T06:48:18.207Z,174
2016-07-04T06:48:48.841Z,174
2016-07-04T06:49:18.852Z,176
2016-07-04T06:49:48.872Z,177
2016-07-04T06:50:18.277Z,179
2016-07-04T06:50:48.903Z,152
2016-07-04T06:51:18.921Z,159
2016-07-04T06:51:48.585Z,159
2016-07-04T06:52:18.963Z,147
2016-07-04T06:52:49.001Z,144
2016-07-04T06:53:18.995Z,144